createdAt,value
2019-05-31T00:00:18.777Z,1018.13
2019-05-31T00:01:18.803Z,1018.11
2019-05-31T00:02:18.824Z,1018.09
2019-05-31T00:03:18.857Z,1018.12
2019-05-31T00:04:18.868Z,1018.11
2019-05-31T00:06:18.914Z,1018.07
2019-05-31T00:07:18.937Z,1018.08
2019-05-31T00:08:18.959Z,1018.07
2019-05-31T00:09:18.983Z,1018.04
2019-05-31T00:10:19.006Z,1018.02
2019-05-31T00:11:19.027Z,1018.04
2019-05-31T00:12:19.052Z,1018.04
2019-05-31T00:13:19.074Z,1018.04
2019-05-31T00:14:20.981Z,1018.04
2019-05-31T00:15:19.119Z,1018.06
2019-05-31T00:16:19.143Z,1018.03
2019-05-31T00:17:19.165Z,1018
2019-05-31T00:18:19.190Z,1018.07
2019-05-31T00:19:19.211Z,1018.01
2019-05-31T00:21:19.258Z,1018
2019-05-31T00:22:19.279Z,1017.97
2019-05-31T00:23:19.306Z,1017.95
2019-05-31T00:24:19.325Z,1017.98
2019-05-31T00:25:19.349Z,1017.98
2019-05-31T00:26:19.371Z,1017.93
2019-05-31T00:27:19.402Z,1017.97
2019-05-31T00:28:19.416Z,1017.91
2019-05-31T00:29:19.439Z,1017.93
2019-05-31T00:30:19.462Z,1017.89
2019-05-31T00:31:19.486Z,1017.89
2019-05-31T00:32:19.508Z,1017.94
2019-05-31T00:33:19.530Z,1017.92
2019-05-31T00:34:19.556Z,1017.93
2019-05-31T00:35:19.578Z,1017.95
2019-05-31T00:36:19.600Z,1017.98
2019-05-31T00:37:19.621Z,1017.97
2019-05-31T00:38:19.643Z,1017.97
2019-05-31T00:39:19.666Z,1017.94
2019-05-31T00:40:20.905Z,1017.95
2019-05-31T00:41:19.712Z,1017.94
2019-05-31T00:42:19.735Z,1017.93
2019-05-31T00:43:19.757Z,1017.95
2019-05-31T00:44:31.939Z,1017.91
2019-05-31T00:45:19.806Z,1017.93
2019-05-31T00:46:19.825Z,1017.92
2019-05-31T00:47:19.848Z,1017.91
2019-05-31T00:48:19.870Z,1017.91
2019-05-31T00:49:19.894Z,1017.84
2019-05-31T00:50:19.922Z,1017.86
2019-05-31T00:51:19.938Z,1017.85
2019-05-31T00:53:19.983Z,1017.77
2019-05-31T00:54:20.006Z,1017.81
2019-05-31T00:55:20.029Z,1017.8
2019-05-31T00:56:20.051Z,1017.78
2019-05-31T00:57:20.074Z,1017.8
2019-05-31T00:58:20.106Z,1017.8
2019-05-31T00:59:20.118Z,1017.75
2019-05-31T01:00:20.141Z,1017.79
2019-05-31T01:01:20.167Z,1017.81
2019-05-31T01:02:20.185Z,1017.84
2019-05-31T01:03:20.209Z,1017.81
2019-05-31T01:04:20.231Z,1017.81
2019-05-31T01:05:20.254Z,1017.83
2019-05-31T01:06:20.276Z,1017.81
2019-05-31T01:07:20.299Z,1017.82
2019-05-31T01:09:20.344Z,1017.8
2019-05-31T01:10:20.366Z,1017.77
2019-05-31T01:11:20.389Z,1017.8
2019-05-31T01:12:20.412Z,1017.76
2019-05-31T01:13:20.435Z,1017.71
2019-05-31T01:14:20.456Z,1017.76
2019-05-31T01:15:20.479Z,1017.77
2019-05-31T01:16:20.502Z,1017.78
2019-05-31T01:17:20.523Z,1017.74
2019-05-31T01:18:20.546Z,1017.75
2019-05-31T01:19:20.569Z,1017.74
2019-05-31T01:20:20.592Z,1017.72
2019-05-31T01:21:20.612Z,1017.71
2019-05-31T01:22:20.636Z,1017.7
2019-05-31T01:23:20.659Z,1017.68
2019-05-31T01:25:20.703Z,1017.7
2019-05-31T01:26:20.725Z,1017.73
2019-05-31T01:27:20.749Z,1017.71
2019-05-31T01:28:20.770Z,1017.74
2019-05-31T01:29:20.792Z,1017.73
2019-05-31T01:30:20.815Z,1017.74
2019-05-31T01:31:20.837Z,1017.74
2019-05-31T01:32:20.859Z,1017.7
2019-05-31T01:33:20.883Z,1017.74
2019-05-31T01:34:20.904Z,1017.78
2019-05-31T01:35:20.928Z,1017.76
2019-05-31T01:36:20.950Z,1017.79
2019-05-31T01:37:20.971Z,1017.8
2019-05-31T01:38:20.993Z,1017.81
2019-05-31T01:39:21.015Z,1017.8
2019-05-31T01:41:21.060Z,1017.8
2019-05-31T01:42:21.083Z,1017.82
2019-05-31T01:43:21.104Z,1017.82
2019-05-31T01:44:21.127Z,1017.81
2019-05-31T01:45:21.149Z,1017.81
2019-05-31T01:46:21.170Z,1017.8
2019-05-31T01:47:21.194Z,1017.83
2019-05-31T01:48:21.218Z,1017.85
2019-05-31T01:49:21.238Z,1017.81
2019-05-31T01:50:21.259Z,1017.79
2019-05-31T01:51:21.282Z,1017.81
2019-05-31T01:52:21.305Z,1017.79
2019-05-31T01:53:21.328Z,1017.76
2019-05-31T01:54:21.349Z,1017.75
2019-05-31T01:56:21.394Z,1017.74
2019-05-31T01:57:21.416Z,1017.76
2019-05-31T01:58:21.438Z,1017.72
2019-05-31T01:59:21.460Z,1017.73
2019-05-31T02:00:21.484Z,1017.74
2019-05-31T02:01:21.505Z,1017.72
2019-05-31T02:02:21.527Z,1017.75
2019-05-31T02:03:21.549Z,1017.71
2019-05-31T02:04:21.574Z,1017.73
2019-05-31T02:05:21.592Z,1017.74
2019-05-31T02:06:21.615Z,1017.74
2019-05-31T02:07:21.637Z,1017.76
2019-05-31T02:08:21.659Z,1017.78
2019-05-31T02:09:21.681Z,1017.73
2019-05-31T02:10:21.707Z,1017.75
2019-05-31T02:11:21.726Z,1017.8
2019-05-31T02:12:21.747Z,1017.81
2019-05-31T02:13:21.770Z,1017.79
2019-05-31T02:14:21.792Z,1017.81
2019-05-31T02:15:31.148Z,1017.77
2019-05-31T02:16:21.836Z,1017.8
2019-05-31T02:17:21.862Z,1017.8
2019-05-31T02:18:21.881Z,1017.78
2019-05-31T02:19:21.902Z,1017.76
2019-05-31T02:20:21.924Z,1017.75
2019-05-31T02:21:21.947Z,1017.75
2019-05-31T02:22:21.969Z,1017.69
2019-05-31T02:23:21.991Z,1017.73
2019-05-31T02:24:22.012Z,1017.7
2019-05-31T02:25:22.038Z,1017.79
2019-05-31T02:26:22.057Z,1017.76
2019-05-31T02:28:22.100Z,1017.76
2019-05-31T02:29:22.123Z,1017.75
2019-05-31T02:30:22.144Z,1017.74
2019-05-31T02:31:22.167Z,1017.74
2019-05-31T02:32:22.189Z,1017.74
2019-05-31T02:33:22.223Z,1017.74
2019-05-31T02:34:22.232Z,1017.73
2019-05-31T02:35:22.265Z,1017.78
2019-05-31T02:36:22.285Z,1017.72
2019-05-31T02:37:22.299Z,1017.78
2019-05-31T02:38:22.320Z,1017.72
2019-05-31T02:39:22.351Z,1017.74
2019-05-31T02:40:22.364Z,1017.72
2019-05-31T02:41:22.387Z,1017.72
2019-05-31T02:42:22.407Z,1017.72
2019-05-31T02:44:22.459Z,1017.68
2019-05-31T02:45:22.474Z,1017.7
2019-05-31T02:46:22.496Z,1017.67
2019-05-31T02:47:22.522Z,1017.69
2019-05-31T02:48:22.538Z,1017.71
2019-05-31T02:49:22.561Z,1017.68
2019-05-31T02:50:22.583Z,1017.7
2019-05-31T02:51:22.606Z,1017.67
2019-05-31T02:52:22.626Z,1017.71
2019-05-31T02:53:22.648Z,1017.7
2019-05-31T02:54:22.689Z,1017.65
2019-05-31T02:55:22.696Z,1017.66
2019-05-31T02:56:22.721Z,1017.63
2019-05-31T02:57:22.744Z,1017.61
2019-05-31T02:58:22.763Z,1017.6
2019-05-31T03:00:22.812Z,1017.6
2019-05-31T03:01:22.833Z,1017.61
2019-05-31T03:02:22.852Z,1017.62
2019-05-31T03:03:22.867Z,1017.57
2019-05-31T03:04:22.889Z,1017.55
2019-05-31T03:05:22.918Z,1017.58
2019-05-31T03:06:22.933Z,1017.57
2019-05-31T03:07:22.956Z,1017.58
2019-05-31T03:08:22.978Z,1017.61
2019-05-31T03:09:22.998Z,1017.6
2019-05-31T03:10:23.020Z,1017.62
2019-05-31T03:11:23.049Z,1017.64
2019-05-31T03:12:23.065Z,1017.6
2019-05-31T03:13:23.097Z,1017.63
2019-05-31T03:14:23.107Z,1017.63
2019-05-31T03:16:23.151Z,1017.64
2019-05-31T03:17:23.176Z,1017.66
2019-05-31T03:18:23.204Z,1017.69
2019-05-31T03:19:23.217Z,1017.68
2019-05-31T03:20:23.242Z,1017.72
2019-05-31T03:21:23.264Z,1017.7
2019-05-31T03:22:23.282Z,1017.71
2019-05-31T03:23:23.812Z,1017.72
2019-05-31T03:24:23.370Z,1017.71
2019-05-31T03:25:23.700Z,1017.69
2019-05-31T03:26:23.381Z,1017.72
2019-05-31T03:27:23.392Z,1017.72
2019-05-31T03:28:24.277Z,1017.74
2019-05-31T03:29:23.541Z,1017.77
2019-05-31T03:31:33.665Z,1017.73
2019-05-31T03:32:33.574Z,1017.78
2019-05-31T03:33:32.080Z,1017.74
2019-05-31T03:34:27.904Z,1017.76
2019-05-31T03:35:31.796Z,1017.79
2019-05-31T03:36:31.199Z,1017.8
2019-05-31T03:37:23.609Z,1017.79
2019-05-31T03:38:23.666Z,1017.81
2019-05-31T03:39:23.690Z,1017.84
2019-05-31T03:40:23.674Z,1017.85
2019-05-31T03:41:23.708Z,1017.82
2019-05-31T03:42:23.720Z,1017.83
2019-05-31T03:43:24.040Z,1017.87
2019-05-31T03:44:23.768Z,1017.83
2019-05-31T03:45:24.040Z,1017.82
2019-05-31T03:46:37.408Z,1017.81
2019-05-31T03:47:23.828Z,1017.82
2019-05-31T03:48:24.083Z,1017.81
2019-05-31T03:49:23.873Z,1017.76
2019-05-31T03:50:25.057Z,1017.81
2019-05-31T03:51:24.669Z,1017.87
2019-05-31T03:52:23.940Z,1017.87
2019-05-31T03:53:24.257Z,1017.86
2019-05-31T03:54:23.983Z,1017.81
2019-05-31T03:55:24.164Z,1017.8
2019-05-31T03:56:24.027Z,1017.82
2019-05-31T03:57:24.062Z,1017.83
2019-05-31T03:58:24.975Z,1017.83
2019-05-31T03:59:24.094Z,1017.81
2019-05-31T04:00:24.118Z,1017.8
2019-05-31T04:01:25.424Z,1017.81
2019-05-31T04:03:24.185Z,1017.86
2019-05-31T04:04:26.105Z,1017.91
2019-05-31T04:05:24.235Z,1017.93
2019-05-31T04:06:26.173Z,1017.89
2019-05-31T04:07:24.273Z,1017.92
2019-05-31T04:08:25.433Z,1017.91
2019-05-31T04:09:24.315Z,1017.9
2019-05-31T04:10:24.890Z,1017.87
2019-05-31T04:11:24.364Z,1017.9
2019-05-31T04:12:26.157Z,1017.9
2019-05-31T04:13:25.288Z,1017.91
2019-05-31T04:14:25.745Z,1017.91
2019-05-31T04:15:24.451Z,1017.9
2019-05-31T04:16:24.775Z,1017.92
2019-05-31T04:17:24.497Z,1017.94
2019-05-31T04:19:25.942Z,1017.92
2019-05-31T04:20:26.429Z,1017.91
2019-05-31T04:21:25.813Z,1017.98
2019-05-31T04:22:25.711Z,1017.88
2019-05-31T04:23:27.023Z,1017.9
2019-05-31T04:24:26.194Z,1017.94
2019-05-31T04:25:25.266Z,1017.9
2019-05-31T04:26:25.892Z,1017.9
2019-05-31T04:27:26.719Z,1017.86
2019-05-31T04:28:27.108Z,1017.89
2019-05-31T04:29:26.378Z,1017.92
2019-05-31T04:30:26.110Z,1017.89
2019-05-31T04:31:26.222Z,1017.91
2019-05-31T04:32:26.417Z,1017.92
2019-05-31T04:33:26.755Z,1017.91
2019-05-31T04:35:25.621Z,1017.89
2019-05-31T04:36:26.699Z,1017.9
2019-05-31T04:37:26.014Z,1017.93
2019-05-31T04:38:27.140Z,1017.91
2019-05-31T04:39:26.351Z,1017.91
2019-05-31T04:40:26.861Z,1017.92
2019-05-31T04:41:26.698Z,1017.92
2019-05-31T04:42:26.781Z,1017.93
2019-05-31T04:43:26.571Z,1017.92
2019-05-31T04:44:26.654Z,1017.94
2019-05-31T04:45:26.621Z,1017.96
2019-05-31T04:46:26.616Z,1017.93
2019-05-31T04:47:26.978Z,1017.98
2019-05-31T04:48:27.246Z,1017.99
2019-05-31T04:49:26.619Z,1017.95
2019-05-31T04:51:26.598Z,1017.92
2019-05-31T04:52:26.752Z,1017.92
2019-05-31T04:53:27.233Z,1017.89
2019-05-31T04:54:26.854Z,1017.91
2019-05-31T04:55:26.362Z,1017.93
2019-05-31T04:56:26.977Z,1017.91
2019-05-31T04:57:26.609Z,1017.9
2019-05-31T04:58:28.291Z,1017.87
2019-05-31T04:59:27.228Z,1017.88
2019-05-31T05:00:26.742Z,1017.9
2019-05-31T05:01:26.612Z,1017.88
2019-05-31T05:02:27.823Z,1017.9
2019-05-31T05:03:29.506Z,1017.9
2019-05-31T05:04:26.861Z,1017.89
2019-05-31T05:06:26.950Z,1017.93
2019-05-31T05:07:26.910Z,1017.94
2019-05-31T05:08:26.993Z,1017.97
2019-05-31T05:09:31.605Z,1017.97
2019-05-31T05:10:26.958Z,1018
2019-05-31T05:11:26.851Z,1017.99
2019-05-31T05:12:26.780Z,1018.02
2019-05-31T05:13:26.885Z,1018.03
2019-05-31T05:14:26.933Z,1018.02
2019-05-31T05:15:26.805Z,1018.02
2019-05-31T05:16:26.985Z,1018.02
2019-05-31T05:17:37.212Z,1018.03
2019-05-31T05:18:29.621Z,1018.05
2019-05-31T05:19:26.947Z,1018.08
2019-05-31T05:20:26.747Z,1018.12
2019-05-31T05:21:26.939Z,1018.11
2019-05-31T05:22:26.998Z,1018.16
2019-05-31T05:23:27.205Z,1018.17
2019-05-31T05:24:27.060Z,1018.17
2019-05-31T05:25:27.154Z,1018.21
2019-05-31T05:26:27.046Z,1018.19
2019-05-31T05:27:26.099Z,1018.16
2019-05-31T05:28:26.123Z,1018.16
2019-05-31T05:29:26.143Z,1018.19
2019-05-31T05:30:26.175Z,1018.24
2019-05-31T05:31:26.192Z,1018.2
2019-05-31T05:32:26.216Z,1018.2
2019-05-31T05:33:26.389Z,1018.18
2019-05-31T05:34:26.348Z,1018.17
2019-05-31T05:35:26.480Z,1018.23
2019-05-31T05:36:26.496Z,1018.24
2019-05-31T05:38:26.677Z,1018.27
2019-05-31T05:39:26.845Z,1018.27
2019-05-31T05:40:26.877Z,1018.26
2019-05-31T05:41:26.434Z,1018.27
2019-05-31T05:42:27.052Z,1018.37
2019-05-31T05:43:27.133Z,1018.72
2019-05-31T05:44:27.320Z,1018.44
2019-05-31T05:45:27.988Z,1018.44
2019-05-31T05:46:27.456Z,1018.33
2019-05-31T05:47:27.597Z,1018.33
2019-05-31T05:48:27.633Z,1018.33
2019-05-31T05:49:27.803Z,1018.36
2019-05-31T05:50:27.746Z,1018.38
2019-05-31T05:51:27.987Z,1018.33
2019-05-31T05:52:26.708Z,1018.34
2019-05-31T05:54:26.758Z,1018.39
2019-05-31T05:55:26.782Z,1018.37
2019-05-31T05:56:26.906Z,1018.33
2019-05-31T05:57:26.929Z,1018.36
2019-05-31T05:58:29.534Z,1018.4
2019-05-31T05:59:27.272Z,1018.43
2019-05-31T06:00:27.808Z,1018.43
2019-05-31T06:01:27.383Z,1018.32
2019-05-31T06:02:27.484Z,1018.33
2019-05-31T06:03:27.759Z,1018.34
2019-05-31T06:04:28.078Z,1018.32
2019-05-31T06:05:27.968Z,1018.29
2019-05-31T06:06:28.182Z,1018.3
2019-05-31T06:07:28.199Z,1018.3
2019-05-31T06:08:30.877Z,1018.25
2019-05-31T06:10:27.167Z,1018.24
2019-05-31T06:11:27.195Z,1018.22
2019-05-31T06:12:27.218Z,1018.22
2019-05-31T06:13:28.564Z,1018.23
2019-05-31T06:14:28.163Z,1018.22
2019-05-31T06:15:27.928Z,1018.31
2019-05-31T06:16:33.226Z,1018.28
2019-05-31T06:17:28.090Z,1018.27
2019-05-31T06:18:28.157Z,1018.23
2019-05-31T06:19:28.642Z,1018.26
2019-05-31T06:20:28.270Z,1018.32
2019-05-31T06:21:28.257Z,1018.31
2019-05-31T06:22:30.836Z,1018.32
2019-05-31T06:23:28.474Z,1018.34
2019-05-31T06:24:28.575Z,1018.35
2019-05-31T06:26:28.447Z,1018.37
2019-05-31T06:27:28.561Z,1018.34
2019-05-31T06:28:28.629Z,1018.36
2019-05-31T06:29:28.615Z,1018.31
2019-05-31T06:30:28.724Z,1018.31
2019-05-31T06:31:28.762Z,1018.32
2019-05-31T06:32:28.823Z,1018.32
2019-05-31T06:33:29.229Z,1018.3
2019-05-31T06:34:28.717Z,1018.29
2019-05-31T06:35:28.847Z,1018.29
2019-05-31T06:36:28.668Z,1018.3
2019-05-31T06:37:29.004Z,1018.22
2019-05-31T06:38:28.813Z,1018.29
2019-05-31T06:39:28.953Z,1018.26
2019-05-31T06:41:28.148Z,1018.3
2019-05-31T06:42:28.869Z,1018.29
2019-05-31T06:43:30.633Z,1018.29
2019-05-31T06:44:29.158Z,1018.31
2019-05-31T06:45:28.562Z,1018.32
2019-05-31T06:46:28.082Z,1018.36
2019-05-31T06:47:28.584Z,1018.45
2019-05-31T06:48:28.132Z,1018.51
2019-05-31T06:49:28.586Z,1018.54
2019-05-31T06:50:30.379Z,1018.53
2019-05-31T06:51:28.822Z,1018.48
2019-05-31T06:52:28.344Z,1018.44
2019-05-31T06:53:29.250Z,1018.41
2019-05-31T06:54:30.359Z,1018.39
2019-05-31T06:55:29.363Z,1018.42
2019-05-31T06:56:29.530Z,1018.43
2019-05-31T06:57:29.765Z,1018.41
2019-05-31T06:58:28.386Z,1018.41
2019-05-31T06:59:28.414Z,1018.49
2019-05-31T07:00:29.615Z,1018.56
2019-05-31T07:01:29.175Z,1018.58
2019-05-31T07:02:28.488Z,1018.5
2019-05-31T07:03:28.585Z,1018.53
2019-05-31T07:04:29.837Z,1018.55
2019-05-31T07:05:29.546Z,1018.6
2019-05-31T07:06:28.626Z,1018.54
2019-05-31T07:07:32.254Z,1018.63
2019-05-31T07:08:28.970Z,1019.13
2019-05-31T07:09:29.239Z,1018.64
2019-05-31T07:10:29.530Z,1018.76
2019-05-31T07:11:29.324Z,1019.4
2019-05-31T07:13:29.668Z,1019.51
2019-05-31T07:14:29.738Z,1019.65
2019-05-31T07:15:29.780Z,1019.66
2019-05-31T07:16:30.963Z,1019.72
2019-05-31T07:17:29.888Z,1019.8
2019-05-31T07:18:37.265Z,1019.84
2019-05-31T07:19:30.028Z,1019.89
2019-05-31T07:20:30.089Z,1019.86
2019-05-31T07:21:30.836Z,1019.88
2019-05-31T07:22:30.320Z,1019.96
2019-05-31T07:23:33.728Z,1019.97
2019-05-31T07:24:29.094Z,1019.89
2019-05-31T07:25:29.289Z,1019.91
2019-05-31T07:26:29.153Z,1019.58
2019-05-31T07:27:29.185Z,1019.28
2019-05-31T07:29:33.798Z,1020.08
2019-05-31T07:30:29.378Z,1020.13
2019-05-31T07:31:30.451Z,1020.11
2019-05-31T07:32:29.529Z,1020.17
2019-05-31T07:33:29.916Z,1020.16
2019-05-31T07:34:29.780Z,1020.02
2019-05-31T07:35:30.038Z,1019.94
2019-05-31T07:36:30.116Z,1019.89
2019-05-31T07:37:32.294Z,1019.36
2019-05-31T07:38:30.536Z,1019.43
2019-05-31T07:39:30.569Z,1018.94
2019-05-31T07:40:30.566Z,1019.52
2019-05-31T07:41:30.764Z,1019.89
2019-05-31T07:42:30.750Z,1019.78
2019-05-31T07:43:31.098Z,1019.55
2019-05-31T07:45:29.770Z,1019.68
2019-05-31T07:46:29.804Z,1019.62
2019-05-31T07:47:29.837Z,1019.56
2019-05-31T07:48:29.880Z,1019.59
2019-05-31T07:49:29.907Z,1019.59
2019-05-31T07:50:29.939Z,1019.24
2019-05-31T07:51:29.973Z,1019.39
2019-05-31T07:52:30.006Z,1019.26
2019-05-31T07:53:30.041Z,1019.26
2019-05-31T07:54:30.074Z,1019.27
2019-05-31T07:55:30.107Z,1018.73
2019-05-31T07:56:30.149Z,1018.81
2019-05-31T07:57:30.185Z,1019.11
2019-05-31T07:58:31.186Z,1018.69
2019-05-31T07:59:31.561Z,1018.84
2019-05-31T08:01:30.838Z,1019.09
2019-05-31T08:02:30.609Z,1018.69
2019-05-31T08:03:30.998Z,1018.84
2019-05-31T08:04:30.855Z,1018.89
2019-05-31T08:05:31.367Z,1019.1
2019-05-31T08:06:34.302Z,1019.06
2019-05-31T08:07:31.102Z,1019.15
2019-05-31T08:08:34.351Z,1018.95
2019-05-31T08:09:31.250Z,1018.98
2019-05-31T08:10:31.217Z,1019.04
2019-05-31T08:11:31.137Z,1018.97
2019-05-31T08:12:31.403Z,1019
2019-05-31T08:13:32.111Z,1018.82
2019-05-31T08:14:31.224Z,1018.95
2019-05-31T08:16:32.031Z,1018.96
2019-05-31T08:17:31.239Z,1018.47
2019-05-31T08:18:31.995Z,1018.37
2019-05-31T08:19:31.433Z,1018.62
2019-05-31T08:20:31.685Z,1018.38
2019-05-31T08:21:33.580Z,1018.52
2019-05-31T08:22:31.465Z,1018.59
2019-05-31T08:23:32.223Z,1018.82
2019-05-31T08:24:32.087Z,1018.76
2019-05-31T08:25:32.880Z,1018.84
2019-05-31T08:26:32.091Z,1018.81
2019-05-31T08:27:32.205Z,1018.82
2019-05-31T08:28:32.374Z,1018.8
2019-05-31T08:29:32.340Z,1018.81
2019-05-31T08:30:32.513Z,1018.66
2019-05-31T08:31:32.352Z,1018.74
2019-05-31T08:32:32.261Z,1018.49
2019-05-31T08:33:32.333Z,1018.63
2019-05-31T08:34:31.428Z,1018.68
2019-05-31T08:35:31.467Z,1018.73
2019-05-31T08:36:33.142Z,1018.73
2019-05-31T08:37:32.334Z,1018.59
2019-05-31T08:38:32.614Z,1018.7
2019-05-31T08:39:32.807Z,1018.53
2019-05-31T08:40:32.921Z,1018.64
2019-05-31T08:41:32.523Z,1018.79
2019-05-31T08:42:32.568Z,1018.48
2019-05-31T08:43:32.808Z,1018.4
2019-05-31T08:44:32.746Z,1018.4
2019-05-31T08:45:32.822Z,1018.37
2019-05-31T08:46:33.192Z,1018.26
2019-05-31T08:48:31.912Z,1018.24
2019-05-31T08:49:40.223Z,1018.24
2019-05-31T08:50:33.060Z,1018.23
2019-05-31T08:51:33.037Z,1018.24
2019-05-31T08:52:39.080Z,1018.24
2019-05-31T08:53:33.198Z,1018.2
2019-05-31T08:54:33.321Z,1018.13
2019-05-31T08:55:33.740Z,1018.15
2019-05-31T08:56:32.180Z,1018.14
2019-05-31T08:57:32.211Z,1018.2
2019-05-31T08:58:32.245Z,1018.26
2019-05-31T08:59:32.277Z,1018.2
2019-05-31T09:00:32.310Z,1018.12
2019-05-31T09:01:32.365Z,1018.16
2019-05-31T09:02:32.373Z,1018.17
2019-05-31T09:04:32.437Z,1018.19
2019-05-31T09:05:32.582Z,1018.19
2019-05-31T09:06:32.499Z,1018.24
2019-05-31T09:07:32.571Z,1018.25
2019-05-31T09:08:32.735Z,1018.26
2019-05-31T09:09:32.649Z,1018.26
2019-05-31T09:10:34.328Z,1018.3
2019-05-31T09:11:33.868Z,1018.25
2019-05-31T09:12:32.806Z,1018.24
2019-05-31T09:13:34.296Z,1018.29
2019-05-31T09:14:34.208Z,1018.27
2019-05-31T09:15:33.526Z,1018.21
2019-05-31T09:16:33.502Z,1018.23
2019-05-31T09:17:33.873Z,1018.28
2019-05-31T09:18:33.554Z,1018.27
2019-05-31T09:20:34.025Z,1018.24
2019-05-31T09:21:33.140Z,1018.2
2019-05-31T09:22:33.048Z,1018.22
2019-05-31T09:23:33.409Z,1018.23
2019-05-31T09:24:34.335Z,1018.24
2019-05-31T09:25:33.455Z,1018.24
2019-05-31T09:26:35.002Z,1018.32
2019-05-31T09:27:45.399Z,1018.29
2019-05-31T09:28:34.105Z,1018.31
2019-05-31T09:29:50.018Z,1018.3
2019-05-31T09:30:34.304Z,1018.3
2019-05-31T09:31:34.720Z,1018.26
2019-05-31T09:32:34.261Z,1018.3
2019-05-31T09:33:34.802Z,1018.27
2019-05-31T09:34:34.640Z,1018.26
2019-05-31T09:36:34.738Z,1018.31
2019-05-31T09:37:33.801Z,1018.32
2019-05-31T09:38:33.440Z,1018.32
2019-05-31T09:39:38.126Z,1018.35
2019-05-31T09:40:33.498Z,1018.33
2019-05-31T09:41:35.159Z,1018.32
2019-05-31T09:42:33.553Z,1018.34
2019-05-31T09:43:33.581Z,1018.39
2019-05-31T09:44:33.905Z,1018.36
2019-05-31T09:45:35.061Z,1018.36
2019-05-31T09:46:33.779Z,1018.36
2019-05-31T09:47:34.305Z,1018.4
2019-05-31T09:48:33.877Z,1018.35
2019-05-31T09:49:34.793Z,1018.42
2019-05-31T09:51:35.379Z,1018.42
2019-05-31T09:52:33.942Z,1018.44
2019-05-31T09:53:33.923Z,1018.41
2019-05-31T09:54:41.384Z,1018.36
2019-05-31T09:55:34.215Z,1018.44
2019-05-31T09:56:35.364Z,1018.46
2019-05-31T09:57:34.522Z,1018.4
2019-05-31T09:58:33.998Z,1018.46
2019-05-31T09:59:35.098Z,1018.45
2019-05-31T10:00:35.662Z,1018.42
2019-05-31T10:01:34.714Z,1018.43
2019-05-31T10:02:34.259Z,1018.44
2019-05-31T10:03:34.152Z,1018.45
2019-05-31T10:04:34.164Z,1018.51
2019-05-31T10:05:34.524Z,1018.47
2019-05-31T10:06:34.446Z,1018.47
2019-05-31T10:07:35.122Z,1018.52
2019-05-31T10:08:37.180Z,1018.47
2019-05-31T10:09:34.438Z,1018.46
2019-05-31T10:10:35.640Z,1018.5
2019-05-31T10:11:35.115Z,1018.52
2019-05-31T10:12:35.860Z,1018.47
2019-05-31T10:13:34.668Z,1018.52
2019-05-31T10:14:36.144Z,1018.5
2019-05-31T10:15:35.212Z,1018.43
2019-05-31T10:16:35.052Z,1018.48
2019-05-31T10:17:36.356Z,1018.48
2019-05-31T10:18:35.891Z,1018.44
2019-05-31T10:19:36.067Z,1018.43
2019-05-31T10:20:36.126Z,1018.41
2019-05-31T10:21:35.175Z,1018.41
2019-05-31T10:23:45.596Z,1018.45
2019-05-31T10:24:34.819Z,1018.45
2019-05-31T10:25:36.565Z,1018.45
2019-05-31T10:26:34.934Z,1018.43
2019-05-31T10:27:34.987Z,1018.44
2019-05-31T10:28:35.343Z,1018.47
2019-05-31T10:29:36.257Z,1018.5
2019-05-31T10:30:35.817Z,1018.45
2019-05-31T10:31:35.761Z,1018.45
2019-05-31T10:32:35.977Z,1018.39
2019-05-31T10:33:36.092Z,1018.4
2019-05-31T10:34:36.184Z,1018.4
2019-05-31T10:35:36.545Z,1018.39
2019-05-31T10:36:36.324Z,1018.42
2019-05-31T10:37:36.592Z,1018.39
2019-05-31T10:39:36.678Z,1018.37
2019-05-31T10:40:35.748Z,1018.4
2019-05-31T10:41:35.733Z,1018.36
2019-05-31T10:42:35.701Z,1018.37
2019-05-31T10:43:36.528Z,1018.36
2019-05-31T10:44:36.293Z,1018.37
2019-05-31T10:45:36.972Z,1018.31
2019-05-31T10:46:37.559Z,1018.37
2019-05-31T10:47:36.429Z,1018.39
2019-05-31T10:48:36.230Z,1018.35
2019-05-31T10:49:36.585Z,1018.33
2019-05-31T10:50:47.323Z,1018.35
2019-05-31T10:51:36.968Z,1018.37
2019-05-31T10:52:37.541Z,1018.35
2019-05-31T10:53:36.540Z,1018.34
2019-05-31T10:55:36.037Z,1018.29
2019-05-31T10:56:37.035Z,1018.37
2019-05-31T10:57:36.229Z,1018.33
2019-05-31T10:58:36.140Z,1018.35
2019-05-31T10:59:37.855Z,1018.34
2019-05-31T11:00:36.207Z,1018.28
2019-05-31T11:01:36.498Z,1018.34
2019-05-31T11:02:36.178Z,1018.25
2019-05-31T11:03:36.787Z,1018.26
2019-05-31T11:04:36.608Z,1018.3
2019-05-31T11:05:36.735Z,1018.22
2019-05-31T11:06:36.587Z,1018.21
2019-05-31T11:07:36.779Z,1018.18
2019-05-31T11:08:36.863Z,1018.23
2019-05-31T11:09:36.761Z,1018.23
2019-05-31T11:11:38.440Z,1018.18
2019-05-31T11:12:37.057Z,1018.2
2019-05-31T11:13:37.025Z,1018.15
2019-05-31T11:14:37.028Z,1018.19
2019-05-31T11:15:38.543Z,1018.22
2019-05-31T11:16:37.334Z,1018.24
2019-05-31T11:17:40.873Z,1018.24
2019-05-31T11:18:37.404Z,1018.22
2019-05-31T11:19:51.247Z,1018.24
2019-05-31T11:20:37.408Z,1018.17
2019-05-31T11:21:37.324Z,1018.17
2019-05-31T11:22:37.878Z,1018.14
2019-05-31T11:23:37.483Z,1018.14
2019-05-31T11:24:36.813Z,1018.11
2019-05-31T11:26:37.918Z,1018.1
2019-05-31T11:27:37.885Z,1018.1
2019-05-31T11:28:37.778Z,1018.04
2019-05-31T11:29:42.170Z,1018.1
2019-05-31T11:30:36.869Z,1018.09
2019-05-31T11:31:36.621Z,1018.11
2019-05-31T11:32:36.641Z,1018.09
2019-05-31T11:33:42.077Z,1018.08
2019-05-31T11:34:36.698Z,1018.09
2019-05-31T11:35:36.906Z,1018.06
2019-05-31T11:36:36.756Z,1017.99
2019-05-31T11:37:36.824Z,1017.98
2019-05-31T11:38:36.818Z,1017.95
2019-05-31T11:39:36.970Z,1017.94
2019-05-31T11:40:36.870Z,1017.95
2019-05-31T11:41:36.899Z,1017.92
2019-05-31T11:42:55.534Z,1018
2019-05-31T11:43:36.955Z,1017.96
2019-05-31T11:44:37.859Z,1017.96
2019-05-31T11:45:37.011Z,1017.94
2019-05-31T11:46:37.446Z,1017.92
2019-05-31T11:47:37.267Z,1017.93
2019-05-31T11:48:37.098Z,1017.84
2019-05-31T11:49:37.269Z,1017.87
2019-05-31T11:50:37.274Z,1017.89
2019-05-31T11:51:37.186Z,1017.95
2019-05-31T11:52:37.575Z,1017.98
2019-05-31T11:53:41.526Z,1017.96
2019-05-31T11:54:59.807Z,1017.92
2019-05-31T11:55:50.085Z,1017.93
2019-05-31T11:56:50.114Z,1017.95
2019-05-31T11:57:50.141Z,1017.86
2019-05-31T11:58:50.180Z,1017.9
2019-05-31T11:59:50.204Z,1017.86
2019-05-31T12:00:50.227Z,1017.82
2019-05-31T12:01:50.254Z,1017.85
2019-05-31T12:03:01.109Z,1017.78
2019-05-31T12:03:50.311Z,1017.73
2019-05-31T12:04:50.340Z,1017.82
2019-05-31T12:05:50.367Z,1017.8
2019-05-31T12:06:50.395Z,1017.74
2019-05-31T12:07:50.425Z,1017.78
2019-05-31T12:08:50.454Z,1017.79
2019-05-31T12:09:50.481Z,1017.8
2019-05-31T12:10:50.509Z,1017.75
2019-05-31T12:11:50.537Z,1017.77
2019-05-31T12:12:56.436Z,1017.82
2019-05-31T12:13:50.593Z,1017.74
2019-05-31T12:14:50.623Z,1017.74
2019-05-31T12:15:50.651Z,1017.76
2019-05-31T12:16:54.834Z,1017.74
2019-05-31T12:18:51.391Z,1017.75
2019-05-31T12:19:50.764Z,1017.75
2019-05-31T12:20:50.791Z,1017.73
2019-05-31T12:21:59.560Z,1017.73
2019-05-31T12:22:50.848Z,1017.72
2019-05-31T12:23:50.878Z,1017.69
2019-05-31T12:24:50.905Z,1017.61
2019-05-31T12:25:50.954Z,1017.6
2019-05-31T12:26:50.964Z,1017.63
2019-05-31T12:27:50.990Z,1017.63
2019-05-31T12:28:51.128Z,1017.68
2019-05-31T12:29:51.922Z,1017.75
2019-05-31T12:30:52.026Z,1017.72
2019-05-31T12:31:52.306Z,1017.73
2019-05-31T12:32:51.132Z,1017.76
2019-05-31T12:34:52.379Z,1017.69
2019-05-31T12:35:52.402Z,1017.72
2019-05-31T12:36:51.265Z,1017.7
2019-05-31T12:37:51.280Z,1017.7
2019-05-31T12:38:52.353Z,1017.72
2019-05-31T12:39:52.482Z,1017.67
2019-05-31T12:40:56.050Z,1017.65
2019-05-31T12:41:52.014Z,1017.72
2019-05-31T12:42:52.404Z,1017.71
2019-05-31T12:43:52.189Z,1017.72
2019-05-31T12:44:51.938Z,1017.73
2019-05-31T12:46:04.839Z,1017.74
2019-05-31T12:46:51.528Z,1017.72
2019-05-31T12:47:54.160Z,1017.68